Time;durP1;ratioP1;P1;durP2;ratioP2;P2;SDS_P1;SDS_P2;PMS_P1;PMS_P2;Temp;Humidity;BMP_temperature;BMP_pressure;BME280_temperature;BME280_humidity;BME280_pressure;Samples;Min_cycle;Max_cycle;Signal;HPM_P1;HPM_P2
2023/04/22 00:01:07;;;;;;;10.63;7.50;;;;;;;;;;6191581;23;20356;-87
2023/04/22 00:03:55;;;;;;;12.18;8.10;;;;;;;;;;6214512;23;20103;-86
2023/04/22 00:06:40;;;;;;;10.07;8.32;;;;;;;;;;6191539;23;20015;-85
2023/04/22 00:09:25;;;;;;;10.60;7.63;;;;;;;;;;6213914;23;20019;-86
2023/04/22 00:12:12;;;;;;;10.23;7.60;;;;;;;;;;6191535;23;20074;-86
2023/04/22 00:14:57;;;;;;;12.40;9.32;;;;;;;;;;6214246;23;20066;-87
2023/04/22 00:17:42;;;;;;;10.57;7.32;;;;;;;;;;6191844;23;20075;-86
2023/04/22 00:20:26;;;;;;;10.77;7.75;;;;;;;;;;6191648;23;20063;-86
2023/04/22 00:23:11;;;;;;;11.82;8.18;;;;;;;;;;6213406;23;20016;-87
2023/04/22 00:25:56;;;;;;;17.58;9.70;;;;;;;;;;6214957;23;20449;-86
2023/04/22 00:28:41;;;;;;;10.60;7.50;;;;;;;;;;6214154;23;20349;-86
2023/04/22 00:31:25;;;;;;;12.43;7.65;;;;;;;;;;6191036;23;20032;-88
2023/04/22 00:34:13;;;;;;;15.02;7.97;;;;;;;;;;6190935;23;20130;-88
2023/04/22 00:36:58;;;;;;;12.77;9.40;;;;;;;;;;6170666;23;20023;-86
2023/04/22 00:39:42;;;;;;;10.82;8.20;;;;;;;;;;6170659;23;20055;-86
2023/04/22 00:42:27;;;;;;;11.88;9.23;;;;;;;;;;6190956;23;20016;-86
2023/04/22 00:45:16;;;;;;;12.68;8.95;;;;;;;;;;6213407;23;20395;-86
2023/04/22 00:48:02;;;;;;;13.48;9.40;;;;;;;;;;6214028;23;20446;-87
2023/04/22 00:50:46;;;;;;;12.23;9.35;;;;;;;;;;6170571;23;20400;-86
2023/04/22 00:53:31;;;;;;;12.75;9.10;;;;;;;;;;6213600;23;20051;-87
2023/04/22 00:56:16;;;;;;;11.82;9.07;;;;;;;;;;6190683;23;20044;-86
2023/04/22 00:59:01;;;;;;;13.20;9.95;;;;;;;;;;6170451;23;20039;-86
2023/04/22 01:01:46;;;;;;;15.38;10.85;;;;;;;;;;6191452;23;20051;-87
2023/04/22 01:04:30;;;;;;;15.48;10.57;;;;;;;;;;6169839;23;20024;-87
2023/04/22 01:07:15;;;;;;;14.70;10.82;;;;;;;;;;6170024;23;20039;-87
2023/04/22 01:10:00;;;;;;;17.55;12.35;;;;;;;;;;6191137;23;20465;-87
2023/04/22 01:12:45;;;;;;;18.08;12.55;;;;;;;;;;6191501;23;20066;-86
2023/04/22 01:15:29;;;;;;;21.92;12.82;;;;;;;;;;6213450;23;20228;-87
2023/04/22 01:18:14;;;;;;;18.27;12.65;;;;;;;;;;6213171;23;20015;-86
2023/04/22 01:21:01;;;;;;;20.65;14.75;;;;;;;;;;6191072;23;20043;-86
2023/04/22 01:23:45;;;;;;;19.90;14.57;;;;;;;;;;6191113;23;20408;-87
2023/04/22 01:26:30;;;;;;;17.45;13.30;;;;;;;;;;6190590;23;20027;-87
2023/04/22 01:29:15;;;;;;;18.83;12.88;;;;;;;;;;6190442;23;20101;-87
2023/04/22 01:32:00;;;;;;;16.85;13.30;;;;;;;;;;6190883;23;20045;-86
2023/04/22 01:34:45;;;;;;;18.90;12.32;;;;;;;;;;6191439;23;20019;-86
2023/04/22 01:37:29;;;;;;;22.60;14.13;;;;;;;;;;6213064;23;20421;-86
2023/04/22 01:40:18;;;;;;;20.58;14.27;;;;;;;;;;6213177;23;20023;-89
2023/04/22 01:43:03;;;;;;;18.95;13.70;;;;;;;;;;6191736;23;20031;-86
2023/04/22 01:45:47;;;;;;;19.15;14.25;;;;;;;;;;6214495;23;20039;-86
2023/04/22 01:48:31;;;;;;;18.13;13.45;;;;;;;;;;6170761;23;20059;-86
2023/04/22 01:51:17;;;;;;;18.60;13.55;;;;;;;;;;6213559;23;20020;-86
2023/04/22 01:54:03;;;;;;;21.88;14.65;;;;;;;;;;6191345;23;20015;-86
2023/04/22 01:56:51;;;;;;;19.13;13.85;;;;;;;;;;6213776;23;20023;-86
2023/04/22 01:59:36;;;;;;;18.23;12.65;;;;;;;;;;6190729;23;20168;-86
2023/04/22 02:02:20;;;;;;;17.02;13.02;;;;;;;;;;6190219;23;20382;-86
2023/04/22 02:05:06;;;;;;;18.80;13.68;;;;;;;;;;6191225;23;20019;-86
2023/04/22 02:07:54;;;;;;;19.27;13.05;;;;;;;;;;6215152;23;20062;-86
2023/04/22 02:10:38;;;;;;;17.25;12.60;;;;;;;;;;6192144;23;20477;-87
2023/04/22 02:13:23;;;;;;;17.73;11.80;;;;;;;;;;6214821;23;20332;-86
2023/04/22 02:16:08;;;;;;;17.27;12.90;;;;;;;;;;6192857;23;20094;-86
2023/04/22 02:18:53;;;;;;;16.75;11.50;;;;;;;;;;6215377;23;20066;-86
2023/04/22 02:21:37;;;;;;;16.67;13.30;;;;;;;;;;6214668;23;20151;-86
2023/04/22 02:24:22;;;;;;;18.17;11.90;;;;;;;;;;6214752;23;20015;-85
2023/04/22 02:27:07;;;;;;;16.08;11.95;;;;;;;;;;6192763;23;20015;-86
2023/04/22 02:29:52;;;;;;;14.65;11.45;;;;;;;;;;6192446;23;20024;-86
2023/04/22 02:32:38;;;;;;;13.05;10.70;;;;;;;;;;6214328;23;20096;-86
2023/04/22 02:35:23;;;;;;;13.68;11.50;;;;;;;;;;6192838;23;20019;-86
2023/04/22 02:38:08;;;;;;;14.40;11.07;;;;;;;;;;6192604;23;20067;-86
2023/04/22 02:40:52;;;;;;;14.82;11.23;;;;;;;;;;6214074;23;20502;-86
2023/04/22 02:43:37;;;;;;;18.20;11.85;;;;;;;;;;6214462;23;20451;-86
2023/04/22 02:46:21;;;;;;;15.30;11.68;;;;;;;;;;6171448;23;20031;-89
2023/04/22 02:49:06;;;;;;;15.25;11.73;;;;;;;;;;6214990;23;20102;-86
2023/04/22 02:51:50;;;;;;;17.38;12.43;;;;;;;;;;6192446;23;20463;-87
2023/04/22 02:54:35;;;;;;;20.20;13.07;;;;;;;;;;6191810;23;20016;-86
2023/04/22 02:57:19;;;;;;;18.98;13.70;;;;;;;;;;6192177;23;20055;-86
2023/04/22 03:00:04;;;;;;;20.90;14.60;;;;;;;;;;6191921;23;20096;-86
2023/04/22 03:02:49;;;;;;;22.42;14.45;;;;;;;;;;6191925;23;20158;-86
2023/04/22 03:05:34;;;;;;;21.13;15.07;;;;;;;;;;6214328;23;20463;-86
2023/04/22 03:08:19;;;;;;;22.83;14.98;;;;;;;;;;6192432;23;20023;-86
2023/04/22 03:11:04;;;;;;;23.48;15.38;;;;;;;;;;6171421;23;20091;-86
2023/04/22 03:13:49;;;;;;;20.70;15.23;;;;;;;;;;6189885;23;20343;-87
2023/04/22 03:16:33;;;;;;;21.48;15.13;;;;;;;;;;6170762;23;20047;-87
2023/04/22 03:19:18;;;;;;;18.10;14.63;;;;;;;;;;6191883;23;20035;-86
2023/04/22 03:22:02;;;;;;;17.40;13.15;;;;;;;;;;6171421;23;20092;-86
2023/04/22 03:24:47;;;;;;;19.95;13.82;;;;;;;;;;6191671;23;20100;-85
2023/04/22 03:27:31;;;;;;;18.25;14.98;;;;;;;;;;6170780;23;20035;-86
2023/04/22 03:30:16;;;;;;;19.23;13.95;;;;;;;;;;6214838;23;20067;-87
2023/04/22 03:33:01;;;;;;;21.35;14.88;;;;;;;;;;6191886;23;20102;-86
2023/04/22 03:35:48;;;;;;;18.92;14.35;;;;;;;;;;6170788;23;20062;-86
2023/04/22 03:38:32;;;;;;;21.45;15.10;;;;;;;;;;6191371;23;20027;-86
2023/04/22 03:41:17;;;;;;;21.30;14.82;;;;;;;;;;6214652;23;20089;-86
2023/04/22 03:44:02;;;;;;;21.92;14.27;;;;;;;;;;6191987;23;20016;-86
2023/04/22 03:46:46;;;;;;;23.58;15.98;;;;;;;;;;6191437;23;20460;-86
2023/04/22 03:49:31;;;;;;;25.40;16.63;;;;;;;;;;6191563;23;20458;-88
2023/04/22 03:52:15;;;;;;;13.85;10.43;;;;;;;;;;6214515;23;20039;-86
2023/04/22 03:55:00;;;;;;;26.75;15.77;;;;;;;;;;6191789;23;20071;-86
2023/04/22 03:57:44;;;;;;;20.10;14.02;;;;;;;;;;6191430;23;20108;-87
2023/04/22 04:00:29;;;;;;;21.95;14.70;;;;;;;;;;6171034;23;20040;-87
2023/04/22 04:03:14;;;;;;;19.75;14.00;;;;;;;;;;6214401;23;20067;-86
2023/04/22 04:05:58;;;;;;;17.92;13.00;;;;;;;;;;6191996;23;20092;-86
2023/04/22 04:08:43;;;;;;;23.17;13.57;;;;;;;;;;6191057;23;20024;-85
2023/04/22 04:11:28;;;;;;;23.67;13.88;;;;;;;;;;6214396;23;20023;-86
2023/04/22 04:14:12;;;;;;;17.80;13.10;;;;;;;;;;6214162;23;20016;-86
2023/04/22 04:16:57;;;;;;;18.83;13.15;;;;;;;;;;6190989;23;20020;-86
2023/04/22 04:19:42;;;;;;;17.60;13.20;;;;;;;;;;6191169;23;20035;-86
2023/04/22 04:22:28;;;;;;;22.42;15.05;;;;;;;;;;6170692;23;20382;-87
2023/04/22 04:25:12;;;;;;;18.65;12.93;;;;;;;;;;6191567;23;20447;-85
2023/04/22 04:27:57;;;;;;;16.10;11.70;;;;;;;;;;6191150;23;20062;-86
2023/04/22 04:30:41;;;;;;;18.17;13.40;;;;;;;;;;6169816;23;20386;-86
2023/04/22 04:33:27;;;;;;;16.65;12.35;;;;;;;;;;6213544;23;20048;-86
2023/04/22 04:36:12;;;;;;;20.58;14.25;;;;;;;;;;6191831;23;20047;-87
2023/04/22 04:38:56;;;;;;;20.13;14.43;;;;;;;;;;6213389;23;20016;-87
2023/04/22 04:41:42;;;;;;;16.25;12.43;;;;;;;;;;6213466;23;20062;-87
2023/04/22 04:44:26;;;;;;;20.77;13.15;;;;;;;;;;6170840;23;20067;-88
2023/04/22 04:47:11;;;;;;;22.40;12.63;;;;;;;;;;6170520;23;20019;-87
2023/04/22 04:49:57;;;;;;;19.88;13.48;;;;;;;;;;6213145;23;20028;-88
2023/04/22 04:52:42;;;;;;;21.85;13.65;;;;;;;;;;6190800;23;20107;-88
2023/04/22 04:55:26;;;;;;;19.00;14.10;;;;;;;;;;6191341;23;20155;-88
2023/04/22 04:58:11;;;;;;;19.55;13.30;;;;;;;;;;6170452;23;20471;-87
2023/04/22 05:00:55;;;;;;;19.48;14.20;;;;;;;;;;6213096;23;20023;-89
2023/04/22 05:03:40;;;;;;;20.67;13.77;;;;;;;;;;6170027;23;20450;-89
2023/04/22 05:06:25;;;;;;;20.80;13.88;;;;;;;;;;6191478;23;20070;-87
2023/04/22 05:09:10;;;;;;;19.23;14.13;;;;;;;;;;6191426;23;20454;-87
2023/04/22 05:11:55;;;;;;;18.77;13.50;;;;;;;;;;6190596;23;20020;-87
2023/04/22 05:14:40;;;;;;;23.40;13.07;;;;;;;;;;6191095;23;20011;-87
2023/04/22 05:17:24;;;;;;;16.67;11.73;;;;;;;;;;6213821;23;20012;-87
2023/04/22 05:20:09;;;;;;;17.58;11.63;;;;;;;;;;6191160;23;20099;-87
2023/04/22 05:22:54;;;;;;;16.75;12.55;;;;;;;;;;6212940;23;20016;-86
2023/04/22 05:25:39;;;;;;;17.52;12.57;;;;;;;;;;6190152;23;20023;-87
2023/04/22 05:28:23;;;;;;;15.90;12.07;;;;;;;;;;6213219;23;20069;-87
2023/04/22 05:31:08;;;;;;;15.82;11.63;;;;;;;;;;6170413;23;20027;-86
2023/04/22 05:33:53;;;;;;;16.55;11.88;;;;;;;;;;6190044;23;20020;-86
2023/04/22 05:36:37;;;;;;;21.02;12.43;;;;;;;;;;6191050;23;20019;-87
2023/04/22 05:39:22;;;;;;;17.88;11.85;;;;;;;;;;6170081;23;20103;-87
2023/04/22 05:42:07;;;;;;;18.63;12.32;;;;;;;;;;6191547;23;20064;-87
2023/04/22 05:44:52;;;;;;;18.67;12.90;;;;;;;;;;6191790;23;20059;-85
2023/04/22 05:47:36;;;;;;;18.73;13.93;;;;;;;;;;6215702;23;20059;-86
2023/04/22 05:50:21;;;;;;;22.52;13.93;;;;;;;;;;6215584;23;20067;-86
2023/04/22 05:53:05;;;;;;;20.05;14.15;;;;;;;;;;6215047;23;20169;-91
2023/04/22 05:55:50;;;;;;;21.77;14.23;;;;;;;;;;6215026;23;20015;-90
2023/04/22 05:58:36;;;;;;;20.08;13.05;;;;;;;;;;6215551;23;20356;-87
2023/04/22 06:01:20;;;;;;;21.70;13.45;;;;;;;;;;6215516;23;20343;-87
2023/04/22 06:04:05;;;;;;;18.58;13.65;;;;;;;;;;6171241;23;20661;-89
2023/04/22 06:06:52;;;;;;;18.50;12.52;;;;;;;;;;6214858;23;20027;-89
2023/04/22 06:09:37;;;;;;;20.05;14.07;;;;;;;;;;6172613;23;20024;-88
2023/04/22 06:12:22;;;;;;;18.15;12.48;;;;;;;;;;6215388;23;20096;-90
2023/04/22 06:15:07;;;;;;;15.77;12.77;;;;;;;;;;6171414;23;20027;-89
2023/04/22 06:17:51;;;;;;;18.80;14.18;;;;;;;;;;6192497;23;20063;-89
2023/04/22 06:20:36;;;;;;;17.00;12.60;;;;;;;;;;6215619;23;20482;-89
2023/04/22 06:23:30;;;;;;;17.45;12.52;;;;;;;;;;6193330;23;20019;-90
2023/04/22 06:26:15;;;;;;;17.53;12.83;;;;;;;;;;6192962;23;20059;-88
2023/04/22 06:29:04;;;;;;;19.52;12.55;;;;;;;;;;6192012;23;20295;-89
2023/04/22 06:31:48;;;;;;;22.67;13.60;;;;;;;;;;6215546;23;20016;-90
2023/04/22 06:34:33;;;;;;;16.52;12.20;;;;;;;;;;6183339;23;20096;-88
2023/04/22 06:37:18;;;;;;;19.05;13.55;;;;;;;;;;6163705;23;20111;-88
2023/04/22 06:40:03;;;;;;;16.73;12.32;;;;;;;;;;6184524;23;20075;-88
2023/04/22 06:42:47;;;;;;;18.05;13.85;;;;;;;;;;6184301;23;20024;-88
2023/04/22 06:45:32;;;;;;;15.18;11.82;;;;;;;;;;6183402;23;20088;-88
2023/04/22 06:48:16;;;;;;;16.08;11.18;;;;;;;;;;6182999;23;20059;-88
2023/04/22 06:51:01;;;;;;;17.92;11.95;;;;;;;;;;6183138;23;20152;-88
2023/04/22 06:53:45;;;;;;;15.52;12.23;;;;;;;;;;6185018;23;20059;-88
2023/04/22 06:56:30;;;;;;;15.43;11.70;;;;;;;;;;6184062;23;20017;-88
2023/04/22 06:59:14;;;;;;;15.57;11.77;;;;;;;;;;6184458;23;20228;-89
2023/04/22 07:01:59;;;;;;;17.75;11.05;;;;;;;;;;6182820;23;20020;-89
2023/04/22 07:04:44;;;;;;;18.05;12.85;;;;;;;;;;6183526;23;20040;-89
2023/04/22 07:07:28;;;;;;;14.40;11.65;;;;;;;;;;6183663;23;20048;-87
2023/04/22 07:10:13;;;;;;;15.82;11.85;;;;;;;;;;6161844;23;20033;-88
2023/04/22 07:13:01;;;;;;;17.65;12.75;;;;;;;;;;6184227;23;20075;-88
2023/04/22 07:15:46;;;;;;;16.67;11.85;;;;;;;;;;6183901;23;20056;-88
2023/04/22 07:18:30;;;;;;;15.32;11.65;;;;;;;;;;6162976;23;20079;-89
2023/04/22 07:21:27;;;;;;;15.70;10.70;;;;;;;;;;6184104;23;20759;-88
2023/04/22 07:24:12;;;;;;;17.13;12.13;;;;;;;;;;6185357;23;20012;-88
2023/04/22 07:26:57;;;;;;;14.50;11.43;;;;;;;;;;6186919;23;20040;-88
2023/04/22 07:29:55;;;;;;;18.13;11.93;;;;;;;;;;6167021;23;20087;-88
2023/04/22 07:32:40;;;;;;;14.25;10.82;;;;;;;;;;6186034;23;20019;-88
2023/04/22 07:35:24;;;;;;;16.42;12.30;;;;;;;;;;6184613;23;20458;-88
2023/04/22 07:38:09;;;;;;;14.18;11.15;;;;;;;;;;6183436;23;20028;-88
2023/04/22 07:40:53;;;;;;;13.18;10.05;;;;;;;;;;6162669;23;20024;-88
2023/04/22 07:43:38;;;;;;;13.95;10.98;;;;;;;;;;6162474;23;20024;-88
2023/04/22 07:46:22;;;;;;;11.98;10.13;;;;;;;;;;6182887;23;20020;-87
2023/04/22 07:49:07;;;;;;;18.67;12.07;;;;;;;;;;6184363;23;20103;-89
2023/04/22 07:51:52;;;;;;;13.35;9.88;;;;;;;;;;6183905;23;20151;-89
2023/04/22 07:54:36;;;;;;;12.45;9.73;;;;;;;;;;6183987;23;20065;-90
2023/04/22 07:57:21;;;;;;;15.68;9.82;;;;;;;;;;6183389;23;20150;-93
2023/04/22 08:00:07;;;;;;;13.65;10.68;;;;;;;;;;6183704;23;20020;-88
2023/04/22 08:02:51;;;;;;;12.52;10.00;;;;;;;;;;6183465;23;20016;-90
2023/04/22 08:05:36;;;;;;;13.18;10.57;;;;;;;;;;6184804;23;20016;-88
2023/04/22 08:08:21;;;;;;;11.02;9.20;;;;;;;;;;6182625;23;20093;-88
2023/04/22 08:11:06;;;;;;;11.48;9.13;;;;;;;;;;6183673;23;20454;-88
2023/04/22 08:13:51;;;;;;;12.80;9.35;;;;;;;;;;6183177;23;20067;-86
2023/04/22 08:16:35;;;;;;;10.90;8.82;;;;;;;;;;6184549;23;20020;-87
2023/04/22 08:19:20;;;;;;;12.98;9.50;;;;;;;;;;6184034;23;20348;-87
2023/04/22 08:22:05;;;;;;;11.27;8.43;;;;;;;;;;6183491;23;20016;-90
2023/04/22 08:24:50;;;;;;;13.50;9.18;;;;;;;;;;6183010;23;20059;-87
2023/04/22 08:27:35;;;;;;;12.70;9.63;;;;;;;;;;6162123;23;20063;-87
2023/04/22 08:30:20;;;;;;;12.38;9.35;;;;;;;;;;6183627;23;20023;-86
2023/04/22 08:33:04;;;;;;;11.85;9.07;;;;;;;;;;6184193;23;20491;-88
2023/04/22 08:35:49;;;;;;;10.45;8.80;;;;;;;;;;6191926;23;20047;-87
2023/04/22 08:38:34;;;;;;;12.20;9.13;;;;;;;;;;6214228;23;20059;-86
2023/04/22 08:41:20;;;;;;;10.13;8.23;;;;;;;;;;6213403;23;20074;-87
2023/04/22 08:44:05;;;;;;;10.77;8.57;;;;;;;;;;6214169;23;20438;-87
2023/04/22 08:46:50;;;;;;;11.18;8.50;;;;;;;;;;6192296;23;20138;-87
2023/04/22 08:49:35;;;;;;;11.30;8.52;;;;;;;;;;6217089;23;20151;-88
2023/04/22 08:52:20;;;;;;;9.48;7.82;;;;;;;;;;6213231;23;20019;-86
2023/04/22 08:55:06;;;;;;;10.07;7.68;;;;;;;;;;6213952;23;20051;-85
2023/04/22 08:57:51;;;;;;;9.88;8.20;;;;;;;;;;6213976;23;20016;-86
2023/04/22 09:00:36;;;;;;;9.45;7.38;;;;;;;;;;6191470;23;20096;-85
2023/04/22 09:03:21;;;;;;;9.50;7.70;;;;;;;;;;6169940;23;20063;-87
2023/04/22 09:06:06;;;;;;;11.15;7.40;;;;;;;;;;6191716;23;20023;-87
2023/04/22 09:08:50;;;;;;;10.63;7.55;;;;;;;;;;6191439;23;20023;-88
2023/04/22 09:11:35;;;;;;;8.82;7.03;;;;;;;;;;6170221;23;20062;-85
2023/04/22 09:14:21;;;;;;;8.35;6.68;;;;;;;;;;6190498;23;20807;-85
2023/04/22 09:17:05;;;;;;;7.72;6.25;;;;;;;;;;6190753;23;20086;-86
2023/04/22 09:19:57;;;;;;;8.48;5.88;;;;;;;;;;6191397;23;20020;-86
2023/04/22 09:22:43;;;;;;;9.13;6.47;;;;;;;;;;6213776;23;20014;-87
2023/04/22 09:25:28;;;;;;;8.18;6.50;;;;;;;;;;6213172;23;20173;-86
2023/04/22 09:28:17;;;;;;;9.35;6.90;;;;;;;;;;6213147;23;20019;-90
2023/04/22 09:31:02;;;;;;;9.52;6.22;;;;;;;;;;6214008;23;20023;-87
2023/04/22 09:33:48;;;;;;;9.40;6.60;;;;;;;;;;6170344;23;20093;-87
2023/04/22 09:36:34;;;;;;;8.07;6.93;;;;;;;;;;6213048;23;20104;-86
2023/04/22 09:39:19;;;;;;;9.30;6.40;;;;;;;;;;6190594;23;20108;-86
2023/04/22 09:42:03;;;;;;;9.38;5.18;;;;;;;;;;6213776;23;20059;-88
2023/04/22 09:44:51;;;;;;;7.25;5.90;;;;;;;;;;6191101;23;20023;-86
2023/04/22 09:47:36;;;;;;;8.52;6.07;;;;;;;;;;6213166;23;20080;-87
2023/04/22 09:50:21;;;;;;;7.03;5.90;;;;;;;;;;6169461;23;20028;-87
2023/04/22 09:53:07;;;;;;;7.57;5.45;;;;;;;;;;6190926;23;20012;-86
2023/04/22 09:55:54;;;;;;;7.20;5.68;;;19.40;99.90;;;;;;6213644;23;20462;-86
2023/04/22 09:59:08;;;;;;;7.80;5.47;;;;;;;;;;6190261;23;20066;-86
2023/04/22 10:02:13;;;;;;;7.32;5.28;;;;;;;;;;6145289;23;20339;-85
2023/04/22 10:04:59;;;;;;;7.45;5.75;;;;;;;;;;6187508;23;20351;-86
2023/04/22 10:07:44;;;;;;;7.55;5.32;;;;;;;;;;6213312;23;20070;-86
2023/04/22 10:10:29;;;;;;;10.40;6.10;;;;;;;;;;6190043;23;20080;-87
2023/04/22 10:13:14;;;;;;;7.00;6.03;;;;;;;;;;6213673;23;20057;-87
2023/04/22 10:15:59;;;;;;;7.45;5.72;;;;;;;;;;6170113;23;20027;-88
2023/04/22 10:18:44;;;;;;;9.23;5.60;;;;;;;;;;6213734;23;20063;-88
2023/04/22 10:21:29;;;;;;;6.53;5.13;;;;;;;;;;6213000;23;20019;-88
2023/04/22 10:24:16;;;;;;;8.77;5.80;;;;;;;;;;6213649;23;20103;-88
2023/04/22 10:27:05;;;;;;;6.38;4.78;;;;;;;;;;6191373;23;20067;-86
2023/04/22 10:29:49;;;;;;;8.73;5.38;;;;;;;;;;6192805;23;20070;-87
2023/04/22 10:32:35;;;;;;;7.10;5.22;;;;;;;;;;6214892;23;20092;-88
2023/04/22 10:35:25;;;;;;;5.75;4.13;;;;;;;;;;6162800;23;20080;-90
2023/04/22 10:38:10;;;;;;;6.53;4.32;;;;;;;;;;6184169;23;20059;-87
2023/04/22 10:40:59;;;;;;;6.00;4.22;;;20.50;98.80;;;;;;6184275;23;20059;-86
2023/04/22 10:43:53;;;;;;;8.02;4.32;;;20.60;98.50;;;;;;6183363;23;20106;-86
2023/04/22 10:46:44;;;;;;;7.18;4.22;;;;;;;;;;6183347;23;20020;-86
2023/04/22 10:49:29;;;;;;;6.47;5.00;;;20.60;97.30;;;;;;6183184;23;20023;-86
2023/04/22 10:52:28;;;;;;;7.20;4.40;;;20.60;95.10;;;;;;6184015;23;20012;-87
2023/04/22 10:55:12;;;;;;;6.68;4.97;;;;;;;;;;6184945;23;20044;-86
2023/04/22 10:57:58;;;;;;;8.95;5.35;;;;;;;;;;6183834;23;20502;-87
2023/04/22 11:00:44;;;;;;;8.00;4.88;;;;;;;;;;6184226;23;20621;-86
2023/04/22 11:03:29;;;;;;;7.05;4.50;;;;;;;;;;6182857;23;20025;-86
2023/04/22 11:06:15;;;;;;;7.53;4.70;;;;;;;;;;6184491;23;20028;-85
2023/04/22 11:09:09;;;;;;;6.70;5.00;;;;;;;;;;6183490;23;20024;-86
2023/04/22 11:12:15;;;;;;;7.65;4.47;;;;;;;;;;6184867;23;20048;-86
2023/04/22 11:15:00;;;;;;;8.60;4.97;;;;;;;;;;6184885;23;20055;-86
2023/04/22 11:17:46;;;;;;;6.78;4.90;;;;;;;;;;6184110;23;20012;-87
2023/04/22 11:20:31;;;;;;;7.30;4.70;;;;;;;;;;6184211;23;20062;-87
2023/04/22 11:23:22;;;;;;;5.63;4.53;;;;;;;;;;6162940;23;20019;-86
2023/04/22 11:26:07;;;;;;;8.90;4.72;;;;;;;;;;6183559;23;20028;-86
2023/04/22 11:28:51;;;;;;;6.57;4.15;;;;;;;;;;6184341;23;20136;-86
2023/04/22 11:31:36;;;;;;;7.05;5.20;;;;;;;;;;6182821;23;20020;-86
2023/04/22 11:34:21;;;;;;;6.28;4.53;;;;;;;;;;6183136;23;20394;-86
2023/04/22 11:37:05;;;;;;;6.28;4.00;;;;;;;;;;6183343;23;20142;-86
2023/04/22 11:39:51;;;;;;;7.78;4.50;;;;;;;;;;6182699;23;20502;-87
2023/04/22 11:42:36;;;;;;;5.85;4.57;;;;;;;;;;6184130;23;20061;-86
2023/04/22 11:45:21;;;;;;;6.50;4.13;;;;;;;;;;6184664;23;20015;-86
2023/04/22 11:48:06;;;;;;;5.43;4.47;;;;;;;;;;6183662;23;20059;-86
2023/04/22 11:51:06;;;;;;;6.40;4.32;;;;;;;;;;6182091;23;20020;-86
2023/04/22 11:53:51;;;;;;;8.63;4.82;;;;;;;;;;6182614;23;20097;-86
2023/04/22 11:56:37;;;;;;;19.60;7.50;;;;;;;;;;6182884;23;20384;-86
2023/04/22 11:59:24;;;;;;;9.25;5.68;;;;;;;;;;6183187;23;20059;-87
2023/04/22 12:02:09;;;;;;;7.75;4.47;;;;;;;;;;6184331;23;20080;-87
2023/04/22 12:04:57;;;;;;;7.93;4.80;;;;;;;;;;6182481;23;20064;-86
2023/04/22 12:07:42;;;;;;;6.20;5.03;;;;;;;;;;6183803;23;20012;-86
2023/04/22 12:10:27;;;;;;;6.97;5.35;;;;;;;;;;6184191;23;20020;-86
2023/04/22 12:13:21;;;;;;;6.95;5.30;;;;;;;;;;6183026;23;20067;-86
2023/04/22 12:16:14;;;;;;;6.80;4.78;;;;;;;;;;6183097;23;20028;-87
2023/04/22 12:18:58;;;;;;;9.23;5.88;;;;;;;;;;6183260;23;20055;-86
2023/04/22 12:21:43;;;;;;;8.63;5.40;;;;;;;;;;6182657;23;20020;-86
2023/04/22 12:24:28;;;;;;;9.23;5.80;;;;;;;;;;6184045;23;20016;-89
2023/04/22 12:27:13;;;;;;;8.82;5.75;;;;;;;;;;6183228;23;20012;-87
2023/04/22 12:29:57;;;;;;;7.43;5.72;;;;;;;;;;6161455;23;20063;-87
2023/04/22 12:32:42;;;;;;;7.82;6.10;;;;;;;;;;6183403;23;20020;-86
2023/04/22 12:35:26;;;;;;;8.13;5.80;;;;;;;;;;6183072;23;20514;-87
2023/04/22 12:38:11;;;;;;;6.20;5.25;;;;;;;;;;6184124;23;20068;-86
2023/04/22 12:40:56;;;;;;;9.43;5.72;;;;;;;;;;6161633;23;20580;-86
2023/04/22 12:43:40;;;;;;;8.38;5.93;;;;;;;;;;6182584;23;20396;-86
2023/04/22 12:46:25;;;;;;;8.73;6.25;;;;;;;;;;6183015;23;20035;-91
2023/04/22 12:49:09;;;;;;;6.80;5.72;;;;;;;;;;6182993;23;20031;-86
2023/04/22 12:51:54;;;;;;;7.32;5.65;;;;;;;;;;6183299;23;20131;-86
2023/04/22 12:54:38;;;;;;;8.05;5.00;;;;;;;;;;6182283;23;20032;-89
2023/04/22 12:57:23;;;;;;;8.50;6.10;;;;;;;;;;6182957;23;20048;-87
2023/04/22 13:00:13;;;;;;;8.82;5.80;;;;;;;;;;6183848;23;20036;-87
2023/04/22 13:02:57;;;;;;;7.00;6.10;;;;;;;;;;6182419;23;20024;-86
2023/04/22 13:05:45;;;;;;;9.45;6.68;;;;;;;;;;6181886;23;20021;-86
2023/04/22 13:08:30;;;;;;;7.65;6.68;;;;;;;;;;6183725;23;20040;-86
2023/04/22 13:11:18;;;;;;;8.40;6.88;;;;;;;;;;6183819;23;20079;-86
2023/04/22 13:14:02;;;;;;;9.07;6.78;;;;;;;;;;6183276;23;20485;-86
2023/04/22 13:16:47;;;;;;;10.23;8.05;;;;;;;;;;6183335;23;20059;-85
2023/04/22 13:19:34;;;;;;;10.70;7.45;;;;;;;;;;6183500;23;20016;-87
2023/04/22 13:22:19;;;;;;;10.15;7.03;;;;;;;;;;6162376;23;20039;-86
2023/04/22 13:25:05;;;;;;;8.23;6.60;;;;;;;;;;6165621;23;20065;-86
2023/04/22 13:27:50;;;;;;;8.45;6.15;;;;;;;;;;6185816;23;20012;-86
2023/04/22 13:30:38;;;;;;;10.18;6.20;;;;;;;;;;6184731;23;20140;-86
2023/04/22 13:33:23;;;;;;;9.68;5.53;;;;;;;;;;6183018;23;20012;-85
2023/04/22 13:36:08;;;;;;;7.80;5.50;;;;;;;;;;6191624;23;20135;-87
2023/04/22 13:38:52;;;;;;;9.65;6.38;;;;;;;;;;6190615;23;20023;-86
2023/04/22 13:41:37;;;;;;;11.07;6.32;;;;;;;;;;6213066;23;20490;-88
2023/04/22 13:44:22;;;;;;;9.63;6.40;;;;;;;;;;6213335;23;20015;-87
2023/04/22 13:47:07;;;;;;;9.85;5.85;;;;;;;;;;6190337;23;20347;-85
2023/04/22 13:49:51;;;;;;;9.20;5.93;;;;;;;;;;6212685;23;20390;-85
2023/04/22 13:52:36;;;;;;;11.35;6.68;;;;;;;;;;6191009;23;20108;-85
2023/04/22 13:55:21;;;;;;;8.40;5.70;;;;;;;;;;6213406;23;20018;-85
2023/04/22 13:58:06;;;;;;;8.85;5.53;;;;;;;;;;6190825;23;20012;-87
2023/04/22 14:00:51;;;;;;;9.05;6.70;;;;;;;;;;6190588;23;20100;-86
2023/04/22 14:03:35;;;;;;;10.70;6.30;;;;;;;;;;6192749;23;20023;-85
2023/04/22 14:06:21;;;;;;;9.88;6.15;;;;;;;;;;6193328;23;20447;-85
2023/04/22 14:09:05;;;;;;;12.15;6.10;;;;;;;;;;6192660;23;20042;-86
2023/04/22 14:11:50;;;;;;;9.15;6.18;;;;;;;;;;6171977;23;20067;-86
2023/04/22 14:14:44;;;;;;;9.85;5.75;;;;;;;;;;6193180;23;20023;-85
2023/04/22 14:17:29;;;;;;;10.63;6.20;;;;;;;;;;6193585;23;20070;-85
2023/04/22 14:20:13;;;;;;;7.63;6.28;;;;;;;;;;6193264;23;20023;-84
2023/04/22 14:22:58;;;;;;;9.57;6.75;;;;;;;;;;6215296;23;20047;-85
2023/04/22 14:25:43;;;;;;;9.82;6.68;;;;;;;;;;6193498;23;20058;-85
2023/04/22 14:28:28;;;;;;;10.48;6.07;;;;;;;;;;6193176;23;20031;-85
2023/04/22 14:31:13;;;;;;;11.30;7.38;;;;;;;;;;6215004;23;20047;-89
2023/04/22 14:33:58;;;;;;;9.45;6.18;;;;;;;;;;6171660;23;20103;-85
2023/04/22 14:36:45;;;;;;;9.35;7.45;;;;;;;;;;6215325;23;20096;-86
2023/04/22 14:39:30;;;;;;;9.95;6.90;;;;;;;;;;6172452;23;20465;-86
2023/04/22 14:42:17;;;;;;;12.07;7.20;;;;;;;;;;6215330;23;20390;-85
2023/04/22 14:45:01;;;;;;;9.75;7.22;;;;;;;;;;6214705;23;20493;-85
2023/04/22 14:47:46;;;;;;;11.43;7.07;;;;;;;;;;6215448;23;20066;-85
2023/04/22 14:50:30;;;;;;;13.68;7.72;;;;;;;;;;6192562;23;20357;-85
2023/04/22 14:53:15;;;;;;;10.15;7.82;;;;;;;;;;6214478;23;20505;-85
2023/04/22 14:56:00;;;;;;;10.48;7.75;;;;;;;;;;6214656;23;20340;-85
2023/04/22 14:58:44;;;;;;;13.82;8.38;;;;;;;;;;6192765;23;20065;-86
2023/04/22 15:01:29;;;;;;;11.60;9.05;;;;;;;;;;6192604;23;20066;-87
2023/04/22 15:04:15;;;;;;;11.35;9.45;;;;;;;;;;6214561;23;20019;-88
2023/04/22 15:07:00;;;;;;;14.20;9.25;;;;;;;;;;6192357;23;20027;-85
2023/04/22 15:09:45;;;;;;;15.32;9.52;;;;;;;;;;6215108;23;20027;-86
2023/04/22 15:12:29;;;;;;;15.30;9.88;;;;;;;;;;6171451;23;20103;-87
2023/04/22 15:15:15;;;;;;;14.13;9.68;;;;;;;;;;6191440;23;20432;-85
2023/04/22 15:18:00;;;;;;;12.35;10.32;;;;;;;;;;6214182;23;20146;-87
2023/04/22 15:20:44;;;;;;;14.65;11.23;;;;;;;;;;6215203;23;20323;-86
2023/04/22 15:23:29;;;;;;;16.05;12.10;;;;;;;;;;6214926;23;20023;-86
2023/04/22 15:26:14;;;;;;;22.90;14.52;;;;;;;;;;6214122;23;20070;-85
2023/04/22 15:28:58;;;;;;;19.13;14.73;;;;;;;;;;6191822;23;20039;-92
2023/04/22 15:31:43;;;;;;;19.83;15.38;;;;;;;;;;6192142;23;20335;-85
2023/04/22 15:34:28;;;;;;;18.00;14.88;;;;;;;;;;6191846;23;20019;-85
2023/04/22 15:37:13;;;;;;;24.48;16.80;;;;;;;;;;6170930;23;20055;-85
2023/04/22 15:39:58;;;;;;;20.80;16.00;;;;;;;;;;6192429;23;20067;-91
2023/04/22 15:42:43;;;;;;;23.02;16.50;;;;;;;;;;6214854;23;20070;-88
2023/04/22 15:45:28;;;;;;;21.63;17.50;;;;;;;;;;6171404;23;20031;-86
2023/04/22 15:48:12;;;;;;;30.27;20.00;;;;;;;;;;6191638;23;20515;-85
2023/04/22 15:50:57;;;;;;;25.30;18.83;;;;;;;;;;6214822;23;20067;-87
2023/04/22 15:53:41;;;;;;;26.75;19.30;;;;;;;;;;6192433;23;20023;-86
2023/04/22 15:56:28;;;;;;;27.00;19.00;;;;;;;;;;6192310;23;20434;-84
2023/04/22 15:59:12;;;;;;;26.75;19.40;;;;;;;;;;6192208;23;20336;-86
2023/04/22 16:01:57;;;;;;;28.90;20.63;;;;;;;;;;6215056;23;20151;-87
2023/04/22 16:04:41;;;;;;;27.60;21.02;;;;;;;;;;6192458;23;20012;-87
2023/04/22 16:07:26;;;;;;;31.25;20.48;;;;;;;;;;6214487;23;20062;-84
2023/04/22 16:10:11;;;;;;;28.95;20.65;;;;;;;;;;6213694;23;20020;-87
2023/04/22 16:12:55;;;;;;;27.02;20.42;;;;;;;;;;6214449;23;20012;-85